sensor_id;sensor_type;location;lat;lon;timestamp;temperature;humidity
65559;DHT22;52203;51.998;5.140;2023-04-03T00:02:15;2.40;118.99
65559;DHT22;52203;51.998;5.140;2023-04-03T00:12:58;2.35;118.99
65559;DHT22;52203;51.998;5.140;2023-04-03T00:22:48;2.21;118.99
65559;DHT22;52203;51.998;5.140;2023-04-03T03:01:19;0.88;118.99
65559;DHT22;52203;51.998;5.140;2023-04-03T04:35:46;-0.22;118.99
65559;DHT22;52203;51.998;5.140;2023-04-03T04:46:06;-0.19;118.99
65559;DHT22;52203;51.998;5.140;2023-04-03T05:25:00;0.53;118.99
65559;DHT22;52203;51.998;5.140;2023-04-03T06:33:54;2.73;118.99
65559;DHT22;52203;51.998;5.140;2023-04-03T06:47:17;3.30;118.99
65559;DHT22;52203;51.998;5.140;2023-04-03T06:53:38;5.06;118.99
65559;DHT22;52203;51.998;5.140;2023-04-03T06:56:04;7.05;118.99
65559;DHT22;52203;51.998;5.140;2023-04-03T06:58:29;8.44;118.99
65559;DHT22;52203;51.998;5.140;2023-04-03T07:00:55;5.92;118.99
65559;DHT22;52203;51.998;5.140;2023-04-03T07:03:20;6.48;118.99
65559;DHT22;52203;51.998;5.140;2023-04-03T07:05:46;7.31;118.99
65559;DHT22;52203;51.998;5.140;2023-04-03T07:08:11;7.93;118.99
65559;DHT22;52203;51.998;5.140;2023-04-03T07:10:38;8.70;118.99
65559;DHT22;52203;51.998;5.140;2023-04-03T07:13:03;9.27;118.99
65559;DHT22;52203;51.998;5.140;2023-04-03T07:15:29;8.31;118.99
65559;DHT22;52203;51.998;5.140;2023-04-03T07:17:55;8.60;118.99
65559;DHT22;52203;51.998;5.140;2023-04-03T07:20:21;9.37;118.99
65559;DHT22;52203;51.998;5.140;2023-04-03T07:22:46;10.10;118.99
65559;DHT22;52203;51.998;5.140;2023-04-03T07:25:12;10.58;118.99
65559;DHT22;52203;51.998;5.140;2023-04-03T07:27:37;10.71;118.99
65559;DHT22;52203;51.998;5.140;2023-04-03T07:30:03;11.12;118.99
65559;DHT22;52203;51.998;5.140;2023-04-03T07:32:28;10.36;118.99
65559;DHT22;52203;51.998;5.140;2023-04-03T07:34:54;10.19;118.99
65559;DHT22;52203;51.998;5.140;2023-04-03T07:37:20;10.72;118.99
65559;DHT22;52203;51.998;5.140;2023-04-03T07:39:45;11.79;118.99
65559;DHT22;52203;51.998;5.140;2023-04-03T07:42:11;10.89;118.99
65559;DHT22;52203;51.998;5.140;2023-04-03T07:44:37;11.42;118.99
65559;DHT22;52203;51.998;5.140;2023-04-03T07:47:03;13.71;118.99
65559;DHT22;52203;51.998;5.140;2023-04-03T07:49:29;12.51;118.99
65559;DHT22;52203;51.998;5.140;2023-04-03T07:51:54;12.93;118.99
65559;DHT22;52203;51.998;5.140;2023-04-03T07:54:20;12.87;118.99
65559;DHT22;52203;51.998;5.140;2023-04-03T07:56:45;11.87;118.99
65559;DHT22;52203;51.998;5.140;2023-04-03T07:59:11;11.84;118.99
65559;DHT22;52203;51.998;5.140;2023-04-03T08:01:37;12.17;118.99
65559;DHT22;52203;51.998;5.140;2023-04-03T08:04:02;12.25;118.99
65559;DHT22;52203;51.998;5.140;2023-04-03T08:06:28;12.40;118.99
65559;DHT22;52203;51.998;5.140;2023-04-03T08:09:00;12.36;118.99
65559;DHT22;52203;51.998;5.140;2023-04-03T08:11:25;12.01;118.99
65559;DHT22;52203;51.998;5.140;2023-04-03T08:13:52;13.48;118.99
65559;DHT22;52203;51.998;5.140;2023-04-03T08:16:20;12.35;118.99
65559;DHT22;52203;51.998;5.140;2023-04-03T08:18:48;12.49;118.99
65559;DHT22;52203;51.998;5.140;2023-04-03T08:21:13;13.23;118.99
65559;DHT22;52203;51.998;5.140;2023-04-03T08:23:40;12.01;118.99
65559;DHT22;52203;51.998;5.140;2023-04-03T08:26:13;13.34;118.99
65559;DHT22;52203;51.998;5.140;2023-04-03T08:28:40;12.82;118.99
65559;DHT22;52203;51.998;5.140;2023-04-03T08:31:08;13.04;118.99
65559;DHT22;52203;51.998;5.140;2023-04-03T08:33:36;13.40;118.99
65559;DHT22;52203;51.998;5.140;2023-04-03T08:36:07;14.27;118.99
65559;DHT22;52203;51.998;5.140;2023-04-03T08:38:34;13.02;118.99
65559;DHT22;52203;51.998;5.140;2023-04-03T08:41:29;13.38;118.99
65559;DHT22;52203;51.998;5.140;2023-04-03T08:49:31;13.81;118.99
65559;DHT22;52203;51.998;5.140;2023-04-03T08:51:59;13.81;118.99
65559;DHT22;52203;51.998;5.140;2023-04-03T08:54:48;12.06;118.99
65559;DHT22;52203;51.998;5.140;2023-04-03T08:57:16;14.39;118.99
65559;DHT22;52203;51.998;5.140;2023-04-03T08:59:42;11.92;118.99
65559;DHT22;52203;51.998;5.140;2023-04-03T09:02:38;10.41;118.99
65559;DHT22;52203;51.998;5.140;2023-04-03T09:05:18;9.68;118.99
65559;DHT22;52203;51.998;5.140;2023-04-03T09:07:49;10.57;118.99
65559;DHT22;52203;51.998;5.140;2023-04-03T09:10:19;10.22;118.99
65559;DHT22;52203;51.998;5.140;2023-04-03T09:13:04;9.30;118.99
65559;DHT22;52203;51.998;5.140;2023-04-03T09:15:32;9.82;118.99
65559;DHT22;52203;51.998;5.140;2023-04-03T09:18:13;10.28;118.99
65559;DHT22;52203;51.998;5.140;2023-04-03T09:21:27;9.76;118.99
65559;DHT22;52203;51.998;5.140;2023-04-03T09:23:59;9.12;118.99
65559;DHT22;52203;51.998;5.140;2023-04-03T09:26:31;8.57;118.99
65559;DHT22;52203;51.998;5.140;2023-04-03T09:29:04;8.23;118.99
65559;DHT22;52203;51.998;5.140;2023-04-03T09:31:42;7.41;118.99
65559;DHT22;52203;51.998;5.140;2023-04-03T09:34:32;6.82;118.99
65559;DHT22;52203;51.998;5.140;2023-04-03T09:37:02;6.41;118.99
65559;DHT22;52203;51.998;5.140;2023-04-03T09:39:33;6.13;118.99
65559;DHT22;52203;51.998;5.140;2023-04-03T09:42:24;5.77;118.99
65559;DHT22;52203;51.998;5.140;2023-04-03T09:44:59;5.94;118.99
65559;DHT22;52203;51.998;5.140;2023-04-03T09:47:33;6.14;118.99
65559;DHT22;52203;51.998;5.140;2023-04-03T09:52:38;6.36;118.99
65559;DHT22;52203;51.998;5.140;2023-04-03T09:55:25;6.28;118.99
65559;DHT22;52203;51.998;5.140;2023-04-03T09:58:02;4.77;118.99
65559;DHT22;52203;51.998;5.140;2023-04-03T10:00:34;5.57;118.99
65559;DHT22;52203;51.998;5.140;2023-04-03T10:03:05;5.77;118.99
65559;DHT22;52203;51.998;5.140;2023-04-03T10:05:40;5.60;118.99
65559;DHT22;52203;51.998;5.140;2023-04-03T10:10:48;5.40;118.99
65559;DHT22;52203;51.998;5.140;2023-04-03T10:13:29;5.34;118.99
65559;DHT22;52203;51.998;5.140;2023-04-03T10:15:56;5.60;118.99
65559;DHT22;52203;51.998;5.140;2023-04-03T10:24:13;5.55;118.99
65559;DHT22;52203;51.998;5.140;2023-04-03T10:26:55;5.95;118.99
65559;DHT22;52203;51.998;5.140;2023-04-03T10:29:36;5.78;118.99
65559;DHT22;52203;51.998;5.140;2023-04-03T10:38:41;5.65;118.99
65559;DHT22;52203;51.998;5.140;2023-04-03T10:46:03;5.82;118.99
65559;DHT22;52203;51.998;5.140;2023-04-03T10:51:43;4.90;118.99
65559;DHT22;52203;51.998;5.140;2023-04-03T10:54:13;5.05;118.99
65559;DHT22;52203;51.998;5.140;2023-04-03T10:57:05;4.96;118.99
65559;DHT22;52203;51.998;5.140;2023-04-03T11:04:39;4.87;118.99
65559;DHT22;52203;51.998;5.140;2023-04-03T11:07:23;5.50;118.99
65559;DHT22;52203;51.998;5.140;2023-04-03T11:09:50;5.43;118.99
65559;DHT22;52203;51.998;5.140;2023-04-03T11:12:28;5.69;118.99
65559;DHT22;52203;51.998;5.140;2023-04-03T11:14:59;5.62;118.99
65559;DHT22;52203;51.998;5.140;2023-04-03T11:17:33;5.61;118.99
65559;DHT22;52203;51.998;5.140;2023-04-03T11:20:06;5.84;118.99
65559;DHT22;52203;51.998;5.140;2023-04-03T11:22:38;5.77;118.99
65559;DHT22;52203;51.998;5.140;2023-04-03T11:27:46;5.76;118.99
65559;DHT22;52203;51.998;5.140;2023-04-03T11:30:33;5.00;118.99
65559;DHT22;52203;51.998;5.140;2023-04-03T11:35:57;5.27;118.99
65559;DHT22;52203;51.998;5.140;2023-04-03T11:38:37;5.03;118.99
65559;DHT22;52203;51.998;5.140;2023-04-03T11:41:06;4.72;118.99
65559;DHT22;52203;51.998;5.140;2023-04-03T11:43:33;5.90;118.99
65559;DHT22;52203;51.998;5.140;2023-04-03T11:46:06;6.86;118.99
65559;DHT22;52203;51.998;5.140;2023-04-03T11:53:39;5.70;118.99
65559;DHT22;52203;51.998;5.140;2023-04-03T12:04:13;5.49;118.99
65559;DHT22;52203;51.998;5.140;2023-04-03T12:09:26;5.31;118.99
65559;DHT22;52203;51.998;5.140;2023-04-03T12:11:53;5.98;118.99
65559;DHT22;52203;51.998;5.140;2023-04-03T12:14:22;5.37;118.99
65559;DHT22;52203;51.998;5.140;2023-04-03T12:16:50;5.05;118.99
65559;DHT22;52203;51.998;5.140;2023-04-03T12:37:56;6.69;118.99
65559;DHT22;52203;51.998;5.140;2023-04-03T12:46:21;6.74;118.99
65559;DHT22;52203;51.998;5.140;2023-04-03T12:51:16;6.80;118.99
65559;DHT22;52203;51.998;5.140;2023-04-03T12:53:43;6.09;118.99
65559;DHT22;52203;51.998;5.140;2023-04-03T12:56:27;6.58;118.99
65559;DHT22;52203;51.998;5.140;2023-04-03T12:58:55;5.87;118.99
65559;DHT22;52203;51.998;5.140;2023-04-03T13:01:24;5.57;118.99
65559;DHT22;52203;51.998;5.140;2023-04-03T13:03:55;6.04;118.99
65559;DHT22;52203;51.998;5.140;2023-04-03T13:06:31;6.02;118.99
65559;DHT22;52203;51.998;5.140;2023-04-03T13:09:00;5.86;118.99
65559;DHT22;52203;51.998;5.140;2023-04-03T13:11:36;6.68;118.99
65559;DHT22;52203;51.998;5.140;2023-04-03T13:14:12;6.19;118.99
65559;DHT22;52203;51.998;5.140;2023-04-03T13:16:39;6.35;118.99
65559;DHT22;52203;51.998;5.140;2023-04-03T13:19:14;6.50;118.99
65559;DHT22;52203;51.998;5.140;2023-04-03T13:21:41;6.40;118.99
65559;DHT22;52203;51.998;5.140;2023-04-03T13:24:08;6.37;118.99
65559;DHT22;52203;51.998;5.140;2023-04-03T13:26:34;5.83;118.99
65559;DHT22;52203;51.998;5.140;2023-04-03T13:29:07;6.34;118.99
65559;DHT22;52203;51.998;5.140;2023-04-03T13:31:37;6.45;118.99
65559;DHT22;52203;51.998;5.140;2023-04-03T13:34:15;6.49;118.99
65559;DHT22;52203;51.998;5.140;2023-04-03T13:36:43;6.90;118.99
65559;DHT22;52203;51.998;5.140;2023-04-03T13:41:41;6.87;118.99
65559;DHT22;52203;51.998;5.140;2023-04-03T13:46:56;6.04;118.99
65559;DHT22;52203;51.998;5.140;2023-04-03T13:51:49;6.63;118.99
65559;DHT22;52203;51.998;5.140;2023-04-03T13:54:29;6.79;118.99
65559;DHT22;52203;51.998;5.140;2023-04-03T13:56:56;6.94;118.99
65559;DHT22;52203;51.998;5.140;2023-04-03T13:59:27;6.86;118.99
65559;DHT22;52203;51.998;5.140;2023-04-03T14:02:09;6.71;118.99
65559;DHT22;52203;51.998;5.140;2023-04-03T14:04:45;6.68;118.99
65559;DHT22;52203;51.998;5.140;2023-04-03T14:07:12;6.67;118.99
65559;DHT22;52203;51.998;5.140;2023-04-03T14:09:38;6.72;118.99
65559;DHT22;52203;51.998;5.140;2023-04-03T14:12:29;6.68;118.99
65559;DHT22;52203;51.998;5.140;2023-04-03T14:14:56;6.52;118.99
65559;DHT22;52203;51.998;5.140;2023-04-03T14:17:26;5.99;118.99
65559;DHT22;52203;51.998;5.140;2023-04-03T14:19:53;6.02;118.99
65559;DHT22;52203;51.998;5.140;2023-04-03T14:22:31;6.11;118.99
65559;DHT22;52203;51.998;5.140;2023-04-03T14:24:58;5.66;118.99
65559;DHT22;52203;51.998;5.140;2023-04-03T14:27:28;6.06;118.99
65559;DHT22;52203;51.998;5.140;2023-04-03T14:29:56;5.99;118.99
65559;DHT22;52203;51.998;5.140;2023-04-03T14:32:23;5.89;118.99
65559;DHT22;52203;51.998;5.140;2023-04-03T14:34:50;5.99;118.99
65559;DHT22;52203;51.998;5.140;2023-04-03T14:37:21;5.90;118.99
65559;DHT22;52203;51.998;5.140;2023-04-03T14:39:49;5.90;118.99
65559;DHT22;52203;51.998;5.140;2023-04-03T14:42:21;5.91;118.99
65559;DHT22;52203;51.998;5.140;2023-04-03T14:44:47;5.69;118.99
65559;DHT22;52203;51.998;5.140;2023-04-03T14:47:16;5.92;118.99
65559;DHT22;52203;51.998;5.140;2023-04-03T14:49:42;5.89;118.99
65559;DHT22;52203;51.998;5.140;2023-04-03T14:52:26;5.81;118.99
65559;DHT22;52203;51.998;5.140;2023-04-03T14:54:53;5.75;118.99
65559;DHT22;52203;51.998;5.140;2023-04-03T14:57:28;5.77;118.99
65559;DHT22;52203;51.998;5.140;2023-04-03T14:59:54;5.78;118.99
65559;DHT22;52203;51.998;5.140;2023-04-03T15:04:51;5.79;118.99
65559;DHT22;52203;51.998;5.140;2023-04-03T15:07:16;5.72;118.99
65559;DHT22;52203;51.998;5.140;2023-04-03T15:09:42;5.72;118.99
65559;DHT22;52203;51.998;5.140;2023-04-03T15:12:08;5.79;118.99
65559;DHT22;52203;51.998;5.140;2023-04-03T15:14:34;5.80;118.99
65559;DHT22;52203;51.998;5.140;2023-04-03T15:16:59;5.75;118.99
65559;DHT22;52203;51.998;5.140;2023-04-03T15:19:25;5.66;118.99
65559;DHT22;52203;51.998;5.140;2023-04-03T15:21:50;5.63;118.99
65559;DHT22;52203;51.998;5.140;2023-04-03T15:24:16;5.59;118.99
65559;DHT22;52203;51.998;5.140;2023-04-03T15:26:41;5.60;118.99
65559;DHT22;52203;51.998;5.140;2023-04-03T15:29:07;5.67;118.99
65559;DHT22;52203;51.998;5.140;2023-04-03T15:31:33;5.59;118.99
65559;DHT22;52203;51.998;5.140;2023-04-03T15:33:59;5.63;118.99
65559;DHT22;52203;51.998;5.140;2023-04-03T15:36:24;5.57;118.99
65559;DHT22;52203;51.998;5.140;2023-04-03T15:38:50;5.50;118.99
65559;DHT22;52203;51.998;5.140;2023-04-03T15:41:15;5.50;118.99
65559;DHT22;52203;51.998;5.140;2023-04-03T15:43:41;5.48;118.99
65559;DHT22;52203;51.998;5.140;2023-04-03T15:46:06;5.45;118.99
65559;DHT22;52203;51.998;5.140;2023-04-03T15:48:32;5.42;118.99
65559;DHT22;52203;51.998;5.140;2023-04-03T15:50:58;5.48;118.99
65559;DHT22;52203;51.998;5.140;2023-04-03T15:53:24;5.49;118.99
65559;DHT22;52203;51.998;5.140;2023-04-03T15:55:50;5.41;118.99
65559;DHT22;52203;51.998;5.140;2023-04-03T15:58:15;5.37;118.99
65559;DHT22;52203;51.998;5.140;2023-04-03T16:00:41;5.31;118.99
65559;DHT22;52203;51.998;5.140;2023-04-03T16:03:12;5.25;118.99
65559;DHT22;52203;51.998;5.140;2023-04-03T16:05:40;5.24;118.99
65559;DHT22;52203;51.998;5.140;2023-04-03T16:08:05;5.22;118.99
65559;DHT22;52203;51.998;5.140;2023-04-03T16:10:33;5.17;118.99
65559;DHT22;52203;51.998;5.140;2023-04-03T16:12:58;5.13;118.99
65559;DHT22;52203;51.998;5.140;2023-04-03T16:15:24;5.07;118.99
65559;DHT22;52203;51.998;5.140;2023-04-03T16:17:51;5.06;118.99
65559;DHT22;52203;51.998;5.140;2023-04-03T16:20:17;5.03;118.99
65559;DHT22;52203;51.998;5.140;2023-04-03T16:22:43;4.98;118.99
65559;DHT22;52203;51.998;5.140;2023-04-03T16:25:10;4.98;118.99
65559;DHT22;52203;51.998;5.140;2023-04-03T16:27:36;4.96;118.99
65559;DHT22;52203;51.998;5.140;2023-04-03T16:30:02;4.95;118.99
65559;DHT22;52203;51.998;5.140;2023-04-03T16:32:30;4.92;118.99
65559;DHT22;52203;51.998;5.140;2023-04-03T16:34:56;4.93;118.99
65559;DHT22;52203;51.998;5.140;2023-04-03T16:37:22;4.89;118.99
65559;DHT22;52203;51.998;5.140;2023-04-03T16:39:48;4.87;118.99
65559;DHT22;52203;51.998;5.140;2023-04-03T16:42:14;4.82;118.99
65559;DHT22;52203;51.998;5.140;2023-04-03T16:44:39;4.73;118.99
65559;DHT22;52203;51.998;5.140;2023-04-03T16:47:06;4.71;118.99
65559;DHT22;52203;51.998;5.140;2023-04-03T16:49:32;4.66;118.99
65559;DHT22;52203;51.998;5.140;2023-04-03T16:52:08;4.57;118.99
65559;DHT22;52203;51.998;5.140;2023-04-03T16:54:33;4.51;118.99
65559;DHT22;52203;51.998;5.140;2023-04-03T16:56:59;4.45;118.99
65559;DHT22;52203;51.998;5.140;2023-04-03T16:59:24;4.39;118.99
65559;DHT22;52203;51.998;5.140;2023-04-03T17:01:50;4.33;118.99
65559;DHT22;52203;51.998;5.140;2023-04-03T17:04:16;4.28;118.99
65559;DHT22;52203;51.998;5.140;2023-04-03T17:06:41;4.22;118.99
65559;DHT22;52203;51.998;5.140;2023-04-03T17:09:07;4.22;118.99
65559;DHT22;52203;51.998;5.140;2023-04-03T17:11:35;4.19;118.99
65559;DHT22;52203;51.998;5.140;2023-04-03T17:14:06;4.16;118.99
65559;DHT22;52203;51.998;5.140;2023-04-03T17:16:40;4.07;118.99
65559;DHT22;52203;51.998;5.140;2023-04-03T17:19:11;4.05;118.99
65559;DHT22;52203;51.998;5.140;2023-04-03T17:21:42;3.98;118.99
65559;DHT22;52203;51.998;5.140;2023-04-03T17:24:10;3.89;118.99
65559;DHT22;52203;51.998;5.140;2023-04-03T17:26:38;3.88;118.99
65559;DHT22;52203;51.998;5.140;2023-04-03T17:29:10;3.88;118.99
65559;DHT22;52203;51.998;5.140;2023-04-03T17:31:35;3.82;118.99
65559;DHT22;52203;51.998;5.140;2023-04-03T17:34:01;3.76;118.99
65559;DHT22;52203;51.998;5.140;2023-04-03T17:36:31;3.73;118.99
65559;DHT22;52203;51.998;5.140;2023-04-03T17:38:57;3.65;118.99
65559;DHT22;52203;51.998;5.140;2023-04-03T17:41:23;3.58;118.99
65559;DHT22;52203;51.998;5.140;2023-04-03T17:43:49;3.50;118.99
65559;DHT22;52203;51.998;5.140;2023-04-03T17:46:15;3.44;118.99
65559;DHT22;52203;51.998;5.140;2023-04-03T17:48:42;3.44;118.99
65559;DHT22;52203;51.998;5.140;2023-04-03T17:51:13;3.33;118.99
65559;DHT22;52203;51.998;5.140;2023-04-03T17:53:39;3.27;118.99
65559;DHT22;52203;51.998;5.140;2023-04-03T17:56:08;3.21;118.99
65559;DHT22;52203;51.998;5.140;2023-04-03T17:58:38;3.19;118.99
65559;DHT22;52203;51.998;5.140;2023-04-03T18:01:33;3.10;118.99
65559;DHT22;52203;51.998;5.140;2023-04-03T18:14:49;2.74;118.99
65559;DHT22;52203;51.998;5.140;2023-04-03T18:17:46;2.67;118.99
65559;DHT22;52203;51.998;5.140;2023-04-03T18:20:24;2.56;118.99
65559;DHT22;52203;51.998;5.140;2023-04-03T18:26:10;2.49;118.99
65559;DHT22;52203;51.998;5.140;2023-04-03T18:29:23;2.41;118.99
65559;DHT22;52203;51.998;5.140;2023-04-03T18:35:21;2.16;118.99
65559;DHT22;52203;51.998;5.140;2023-04-03T18:37:47;2.13;118.99
65559;DHT22;52203;51.998;5.140;2023-04-03T18:55:51;1.77;118.99
65559;DHT22;52203;51.998;5.140;2023-04-03T18:58:46;1.67;118.99
65559;DHT22;52203;51.998;5.140;2023-04-03T19:01:13;1.60;118.99
65559;DHT22;52203;51.998;5.140;2023-04-03T19:03:42;1.50;118.99
65559;DHT22;52203;51.998;5.140;2023-04-03T19:06:07;1.42;118.99
65559;DHT22;52203;51.998;5.140;2023-04-03T19:08:36;1.41;118.99
65559;DHT22;52203;51.998;5.140;2023-04-03T19:14:03;1.33;118.99
65559;DHT22;52203;51.998;5.140;2023-04-03T19:26:28;1.06;118.99
65559;DHT22;52203;51.998;5.140;2023-04-03T19:29:04;1.01;118.99
65559;DHT22;52203;51.998;5.140;2023-04-03T19:31:33;0.96;118.99
65559;DHT22;52203;51.998;5.140;2023-04-03T19:34:17;0.93;118.99
65559;DHT22;52203;51.998;5.140;2023-04-03T19:36:51;0.90;118.99
65559;DHT22;52203;51.998;5.140;2023-04-03T19:39:19;0.80;118.99
65559;DHT22;52203;51.998;5.140;2023-04-03T19:41:48;0.80;118.99
65559;DHT22;52203;51.998;5.140;2023-04-03T19:44:44;0.77;118.99
65559;DHT22;52203;51.998;5.140;2023-04-03T19:47:16;0.74;118.99
65559;DHT22;52203;51.998;5.140;2023-04-03T19:53:23;0.72;118.99
65559;DHT22;52203;51.998;5.140;2023-04-03T19:59:01;0.59;118.99
65559;DHT22;52203;51.998;5.140;2023-04-03T20:01:43;0.58;118.99
65559;DHT22;52203;51.998;5.140;2023-04-03T20:04:13;0.51;118.99
65559;DHT22;52203;51.998;5.140;2023-04-03T20:10:38;0.36;118.99
65559;DHT22;52203;51.998;5.140;2023-04-03T20:16:59;0.15;118.99
65559;DHT22;52203;51.998;5.140;2023-04-03T20:20:03;0.07;118.99
65559;DHT22;52203;51.998;5.140;2023-04-03T20:29:34;-0.22;118.99
65559;DHT22;52203;51.998;5.140;2023-04-03T20:32:24;-0.28;118.99
65559;DHT22;52203;51.998;5.140;2023-04-03T20:41:43;-0.44;118.99
65559;DHT22;52203;51.998;5.140;2023-04-03T20:45:15;-0.55;118.99
65559;DHT22;52203;51.998;5.140;2023-04-03T20:52:04;-0.62;118.99
65559;DHT22;52203;51.998;5.140;2023-04-03T21:23:04;-1.05;118.99
65559;DHT22;52203;51.998;5.140;2023-04-03T21:26:14;-0.98;118.99
65559;DHT22;52203;51.998;5.140;2023-04-03T21:32:32;-1.10;118.99
65559;DHT22;52203;51.998;5.140;2023-04-03T21:38:36;-1.12;118.99
65559;DHT22;52203;51.998;5.140;2023-04-03T21:41:08;-1.17;118.99
65559;DHT22;52203;51.998;5.140;2023-04-03T21:54:18;-1.29;118.99
65559;DHT22;52203;51.998;5.140;2023-04-03T22:00:32;-1.42;118.99
65559;DHT22;52203;51.998;5.140;2023-04-03T22:03:45;-1.53;118.99
65559;DHT22;52203;51.998;5.140;2023-04-03T23:33:29;-2.41;118.99
